sensor_id;sensor_type;location;lat;lon;timestamp;pressure;altitude;pressure_sealevel;temperature;humidity
12486;BME280;6307;46.804;11.580;2022-07-23T00:00:59;-21569.97;;;23.98;95.46
12486;BME280;6307;46.804;11.580;2022-07-23T00:03:26;-21568.94;;;23.95;93.26
12486;BME280;6307;46.804;11.580;2022-07-23T00:05:52;-21567.28;;;23.89;93.34
12486;BME280;6307;46.804;11.580;2022-07-23T00:08:18;-21573.66;;;24.11;90.70
12486;BME280;6307;46.804;11.580;2022-07-23T00:10:44;-21577.53;;;24.24;90.00
12486;BME280;6307;46.804;11.580;2022-07-23T00:13:11;-21577.06;;;24.22;87.54
12486;BME280;6307;46.804;11.580;2022-07-23T00:15:37;-21576.94;;;24.22;88.05
12486;BME280;6307;46.804;11.580;2022-07-23T00:18:03;-21577.06;;;24.22;88.54
12486;BME280;6307;46.804;11.580;2022-07-23T00:20:31;-21577.53;;;24.24;90.20
12486;BME280;6307;46.804;11.580;2022-07-23T00:22:57;-21574.69;;;24.14;92.79
12486;BME280;6307;46.804;11.580;2022-07-23T00:25:24;-21572.78;;;24.08;93.62
12486;BME280;6307;46.804;11.580;2022-07-23T00:27:51;-21570.56;;;24.00;91.70
12486;BME280;6307;46.804;11.580;2022-07-23T00:30:17;-21568.63;;;23.94;93.90
12486;BME280;6307;46.804;11.580;2022-07-23T00:32:50;-21569.53;;;23.97;94.82
12486;BME280;6307;46.804;11.580;2022-07-23T00:35:22;-21568.94;;;23.95;95.39
12486;BME280;6307;46.804;11.580;2022-07-23T00:37:50;-21561.81;;;23.71;97.15
12486;BME280;6307;46.804;11.580;2022-07-23T00:40:16;-21559.44;;;23.63;98.63
12486;BME280;6307;46.804;11.580;2022-07-23T00:42:42;-21560.19;;;23.65;98.69
12486;BME280;6307;46.804;11.580;2022-07-23T00:45:09;-21559.28;;;23.62;98.81
12486;BME280;6307;46.804;11.580;2022-07-23T00:47:36;-21558.56;;;23.60;99.65
12486;BME280;6307;46.804;11.580;2022-07-23T00:50:05;-21558.41;;;23.59;98.64
12486;BME280;6307;46.804;11.580;2022-07-23T00:52:34;-21556.47;;;23.53;100.00
12486;BME280;6307;46.804;11.580;2022-07-23T00:55:01;-21554.25;;;23.45;100.00
12486;BME280;6307;46.804;11.580;2022-07-23T00:57:31;-21549.81;;;23.30;100.00
12486;BME280;6307;46.804;11.580;2022-07-23T00:59:58;-21550.25;;;23.32;100.00
12486;BME280;6307;46.804;11.580;2022-07-23T01:02:25;-21550.25;;;23.32;99.25
12486;BME280;6307;46.804;11.580;2022-07-23T01:04:52;-21556.63;;;23.53;96.37
12486;BME280;6307;46.804;11.580;2022-07-23T01:07:19;-21557.97;;;23.58;96.68
12486;BME280;6307;46.804;11.580;2022-07-23T01:09:47;-21558.41;;;23.59;94.25
12486;BME280;6307;46.804;11.580;2022-07-23T01:12:13;-21561.06;;;23.68;93.67
12486;BME280;6307;46.804;11.580;2022-07-23T01:14:40;-21563.59;;;23.77;92.22
12486;BME280;6307;46.804;11.580;2022-07-23T01:17:06;-21565.66;;;23.84;89.25
12486;BME280;6307;46.804;11.580;2022-07-23T01:19:32;-21569.06;;;23.95;89.23
12486;BME280;6307;46.804;11.580;2022-07-23T01:22:01;-21570.84;;;24.01;89.57
12486;BME280;6307;46.804;11.580;2022-07-23T01:24:29;-21568.78;;;23.94;92.24
12486;BME280;6307;46.804;11.580;2022-07-23T01:26:55;-21560.19;;;23.65;94.73
12486;BME280;6307;46.804;11.580;2022-07-23T01:29:22;-21561.06;;;23.68;95.61
12486;BME280;6307;46.804;11.580;2022-07-23T01:31:48;-21552.78;;;23.40;96.93
12486;BME280;6307;46.804;11.580;2022-07-23T01:34:14;-21552.63;;;23.40;96.35
12486;BME280;6307;46.804;11.580;2022-07-23T01:36:40;-21554.25;;;23.45;94.44
12486;BME280;6307;46.804;11.580;2022-07-23T01:39:07;-21562.56;;;23.73;91.41
12486;BME280;6307;46.804;11.580;2022-07-23T01:41:34;-21562.69;;;23.74;90.05
12486;BME280;6307;46.804;11.580;2022-07-23T01:44:00;-21566.13;;;23.85;91.35
12486;BME280;6307;46.804;11.580;2022-07-23T01:46:27;-21566.25;;;23.86;92.74
12486;BME280;6307;46.804;11.580;2022-07-23T01:48:53;-21556.31;;;23.52;96.95
12486;BME280;6307;46.804;11.580;2022-07-23T01:51:19;-21555.44;;;23.49;97.68
12486;BME280;6307;46.804;11.580;2022-07-23T01:53:45;-21550.84;;;23.34;100.00
12486;BME280;6307;46.804;11.580;2022-07-23T01:56:12;-21547.59;;;23.23;100.00
12486;BME280;6307;46.804;11.580;2022-07-23T01:58:40;-21546.41;;;23.19;100.00
12486;BME280;6307;46.804;11.580;2022-07-23T02:01:06;-21547.59;;;23.23;97.97
12486;BME280;6307;46.804;11.580;2022-07-23T02:03:32;-21545.06;;;23.14;100.00
12486;BME280;6307;46.804;11.580;2022-07-23T02:05:58;-21535.56;;;22.82;100.00
12486;BME280;6307;46.804;11.580;2022-07-23T02:08:24;-21536.00;;;22.84;100.00
12486;BME280;6307;46.804;11.580;2022-07-23T02:10:50;-21535.13;;;22.81;100.00
12486;BME280;6307;46.804;11.580;2022-07-23T02:13:17;-21533.63;;;22.76;100.00
12486;BME280;6307;46.804;11.580;2022-07-23T02:15:43;-21535.25;;;22.81;100.00
12486;BME280;6307;46.804;11.580;2022-07-23T02:18:11;-21540.47;;;22.99;100.00
12486;BME280;6307;46.804;11.580;2022-07-23T02:20:37;-21542.84;;;23.07;100.00
12486;BME280;6307;46.804;11.580;2022-07-23T02:23:04;-21539.28;;;22.95;100.00
12486;BME280;6307;46.804;11.580;2022-07-23T02:25:31;-21540.47;;;22.99;100.00
12486;BME280;6307;46.804;11.580;2022-07-23T02:27:57;-21536.91;;;22.87;100.00
12486;BME280;6307;46.804;11.580;2022-07-23T02:30:23;-21530.22;;;22.64;100.00
12486;BME280;6307;46.804;11.580;2022-07-23T02:32:49;-21527.84;;;22.56;100.00
12486;BME280;6307;46.804;11.580;2022-07-23T02:35:15;-21527.69;;;22.56;100.00
12486;BME280;6307;46.804;11.580;2022-07-23T02:37:42;-21527.69;;;22.56;100.00
12486;BME280;6307;46.804;11.580;2022-07-23T02:40:08;-21525.63;;;22.49;100.00
12486;BME280;6307;46.804;11.580;2022-07-23T02:42:35;-21524.00;;;22.43;100.00
12486;BME280;6307;46.804;11.580;2022-07-23T02:45:01;-21520.88;;;22.33;100.00
12486;BME280;6307;46.804;11.580;2022-07-23T02:47:27;-21528.00;;;22.57;100.00
12486;BME280;6307;46.804;11.580;2022-07-23T02:49:54;-21531.25;;;22.68;100.00
12486;BME280;6307;46.804;11.580;2022-07-23T02:52:20;-21533.94;;;22.77;100.00
12486;BME280;6307;46.804;11.580;2022-07-23T02:54:46;-21529.34;;;22.61;100.00
12486;BME280;6307;46.804;11.580;2022-07-23T02:57:12;-21517.00;;;22.20;100.00
12486;BME280;6307;46.804;11.580;2022-07-23T02:59:38;-21514.78;;;22.12;100.00
12486;BME280;6307;46.804;11.580;2022-07-23T03:02:05;-21513.91;;;22.09;100.00
12486;BME280;6307;46.804;11.580;2022-07-23T03:04:31;-21514.78;;;22.12;100.00
12486;BME280;6307;46.804;11.580;2022-07-23T03:06:57;-21516.56;;;22.18;100.00
12486;BME280;6307;46.804;11.580;2022-07-23T03:09:23;-21513.91;;;22.09;100.00
12486;BME280;6307;46.804;11.580;2022-07-23T03:11:49;-21512.84;;;22.06;100.00
12486;BME280;6307;46.804;11.580;2022-07-23T03:14:15;-21509.16;;;21.93;100.00
12486;BME280;6307;46.804;11.580;2022-07-23T03:16:42;-21514.19;;;22.10;100.00
12486;BME280;6307;46.804;11.580;2022-07-23T03:19:08;-21514.50;;;22.11;100.00
12486;BME280;6307;46.804;11.580;2022-07-23T03:21:34;-21514.78;;;22.12;100.00
12486;BME280;6307;46.804;11.580;2022-07-23T03:24:05;-21509.28;;;21.94;100.00
12486;BME280;6307;46.804;11.580;2022-07-23T03:26:33;-21507.22;;;21.87;100.00
12486;BME280;6307;46.804;11.580;2022-07-23T03:28:59;-21506.91;;;21.86;100.00
12486;BME280;6307;46.804;11.580;2022-07-23T03:31:26;-21508.41;;;21.91;100.00
12486;BME280;6307;46.804;11.580;2022-07-23T03:33:52;-21508.69;;;21.92;100.00
12486;BME280;6307;46.804;11.580;2022-07-23T03:36:19;-21509.44;;;21.94;100.00
12486;BME280;6307;46.804;11.580;2022-07-23T03:38:45;-21502.63;;;21.71;100.00
12486;BME280;6307;46.804;11.580;2022-07-23T03:41:11;-21508.56;;;21.91;100.00
12486;BME280;6307;46.804;11.580;2022-07-23T03:43:37;-21511.38;;;22.01;100.00
12486;BME280;6307;46.804;11.580;2022-07-23T03:46:03;-21514.63;;;22.12;100.00
12486;BME280;6307;46.804;11.580;2022-07-23T03:48:29;-21513.31;;;22.07;100.00
12486;BME280;6307;46.804;11.580;2022-07-23T03:50:55;-21521.03;;;22.33;100.00
12486;BME280;6307;46.804;11.580;2022-07-23T03:53:21;-21526.38;;;22.51;100.00
12486;BME280;6307;46.804;11.580;2022-07-23T03:55:48;-21529.94;;;22.63;100.00
12486;BME280;6307;46.804;11.580;2022-07-23T03:58:14;-21526.06;;;22.50;100.00
12486;BME280;6307;46.804;11.580;2022-07-23T04:00:40;-21517.91;;;22.23;100.00
12486;BME280;6307;46.804;11.580;2022-07-23T04:03:06;-21496.38;;;21.50;100.00
12486;BME280;6307;46.804;11.580;2022-07-23T04:05:32;-21472.75;;;20.71;100.00
12486;BME280;6307;46.804;11.580;2022-07-23T04:07:59;-21442.41;;;19.69;100.00
12486;BME280;6307;46.804;11.580;2022-07-23T04:10:25;-21423.06;;;19.04;100.00
12486;BME280;6307;46.804;11.580;2022-07-23T04:12:51;-21409.34;;;18.58;100.00
12486;BME280;6307;46.804;11.580;2022-07-23T04:15:17;-21399.66;;;18.25;100.00
12486;BME280;6307;46.804;11.580;2022-07-23T04:17:44;-21384.75;;;17.75;100.00
12486;BME280;6307;46.804;11.580;2022-07-23T04:20:12;-21375.97;;;17.46;100.00
12486;BME280;6307;46.804;11.580;2022-07-23T04:22:38;-21372.25;;;17.33;100.00
12486;BME280;6307;46.804;11.580;2022-07-23T04:25:05;-21373.88;;;17.39;100.00
12486;BME280;6307;46.804;11.580;2022-07-23T04:27:31;-21374.19;;;17.40;100.00
12486;BME280;6307;46.804;11.580;2022-07-23T04:29:58;-21368.66;;;17.21;100.00
12486;BME280;6307;46.804;11.580;2022-07-23T04:32:24;-21368.34;;;17.20;100.00
12486;BME280;6307;46.804;11.580;2022-07-23T04:34:50;-21370.75;;;17.28;100.00
12486;BME280;6307;46.804;11.580;2022-07-23T04:37:16;-21371.78;;;17.32;100.00
12486;BME280;6307;46.804;11.580;2022-07-23T04:39:43;-21367.03;;;17.16;100.00
12486;BME280;6307;46.804;11.580;2022-07-23T04:42:09;-21368.22;;;17.20;100.00
12486;BME280;6307;46.804;11.580;2022-07-23T04:44:36;-21369.72;;;17.25;100.00
12486;BME280;6307;46.804;11.580;2022-07-23T04:47:02;-21373.44;;;17.37;100.00
12486;BME280;6307;46.804;11.580;2022-07-23T04:49:28;-21374.19;;;17.40;100.00
12486;BME280;6307;46.804;11.580;2022-07-23T04:51:54;-21375.22;;;17.43;100.00
12486;BME280;6307;46.804;11.580;2022-07-23T04:54:20;-21373.44;;;17.37;100.00
12486;BME280;6307;46.804;11.580;2022-07-23T04:56:46;-21371.03;;;17.29;100.00
12486;BME280;6307;46.804;11.580;2022-07-23T04:59:13;-21372.69;;;17.35;100.00
12486;BME280;6307;46.804;11.580;2022-07-23T05:01:39;-21370.59;;;17.28;100.00
12486;BME280;6307;46.804;11.580;2022-07-23T05:04:06;-21368.06;;;17.19;100.00
12486;BME280;6307;46.804;11.580;2022-07-23T05:06:32;-21370.44;;;17.27;100.00
12486;BME280;6307;46.804;11.580;2022-07-23T05:08:59;-21369.09;;;17.23;100.00
12486;BME280;6307;46.804;11.580;2022-07-23T05:11:25;-21371.19;;;17.30;100.00
12486;BME280;6307;46.804;11.580;2022-07-23T05:13:51;-21369.72;;;17.25;100.00
12486;BME280;6307;46.804;11.580;2022-07-23T05:16:17;-21364.19;;;17.06;100.00
12486;BME280;6307;46.804;11.580;2022-07-23T05:18:43;-21364.78;;;17.08;100.00
12486;BME280;6307;46.804;11.580;2022-07-23T05:21:09;-21360.47;;;16.94;100.00
12486;BME280;6307;46.804;11.580;2022-07-23T05:23:35;-21363.75;;;17.05;100.00
12486;BME280;6307;46.804;11.580;2022-07-23T05:26:01;-21366.56;;;17.14;100.00
12486;BME280;6307;46.804;11.580;2022-07-23T05:28:28;-21363.75;;;17.05;100.00
12486;BME280;6307;46.804;11.580;2022-07-23T05:30:54;-21366.56;;;17.14;100.00
12486;BME280;6307;46.804;11.580;2022-07-23T05:33:20;-21361.66;;;16.98;100.00
12486;BME280;6307;46.804;11.580;2022-07-23T05:35:46;-21366.13;;;17.13;100.00
12486;BME280;6307;46.804;11.580;2022-07-23T05:38:13;-21369.72;;;17.25;100.00
12486;BME280;6307;46.804;11.580;2022-07-23T05:40:41;-21371.03;;;17.29;100.00
12486;BME280;6307;46.804;11.580;2022-07-23T05:43:08;-21369.84;;;17.25;100.00
12486;BME280;6307;46.804;11.580;2022-07-23T05:45:34;-21373.28;;;17.37;100.00
12486;BME280;6307;46.804;11.580;2022-07-23T05:48:00;-21372.69;;;17.35;100.00
12486;BME280;6307;46.804;11.580;2022-07-23T05:50:26;-21377.16;;;17.50;100.00
12486;BME280;6307;46.804;11.580;2022-07-23T05:52:52;-21378.66;;;17.55;100.00
12486;BME280;6307;46.804;11.580;2022-07-23T05:55:18;-21367.91;;;17.19;100.00
12486;BME280;6307;46.804;11.580;2022-07-23T05:57:45;-21375.53;;;17.44;100.00
12486;BME280;6307;46.804;11.580;2022-07-23T06:00:11;-21386.09;;;17.80;100.00
12486;BME280;6307;46.804;11.580;2022-07-23T06:02:38;-21393.25;;;18.04;100.00
12486;BME280;6307;46.804;11.580;2022-07-23T06:05:05;-21394.31;;;18.07;100.00
12486;BME280;6307;46.804;11.580;2022-07-23T06:07:33;-21394.16;;;18.07;100.00
12486;BME280;6307;46.804;11.580;2022-07-23T06:09:59;-21392.50;;;18.01;100.00
12486;BME280;6307;46.804;11.580;2022-07-23T06:12:26;-21399.66;;;18.25;100.00
12486;BME280;6307;46.804;11.580;2022-07-23T06:14:52;-21406.66;;;18.49;100.00
12486;BME280;6307;46.804;11.580;2022-07-23T06:17:18;-21413.38;;;18.71;100.00
12486;BME280;6307;46.804;11.580;2022-07-23T06:19:44;-21408.00;;;18.53;100.00
12486;BME280;6307;46.804;11.580;2022-07-23T06:22:10;-21410.84;;;18.63;100.00
12486;BME280;6307;46.804;11.580;2022-07-23T06:24:37;-21407.72;;;18.52;100.00
12486;BME280;6307;46.804;11.580;2022-07-23T06:27:04;-21405.47;;;18.45;100.00
12486;BME280;6307;46.804;11.580;2022-07-23T06:29:30;-21404.88;;;18.43;100.00
12486;BME280;6307;46.804;11.580;2022-07-23T06:31:56;-21396.38;;;18.14;100.00
12486;BME280;6307;46.804;11.580;2022-07-23T06:34:22;-21395.66;;;18.12;100.00
12486;BME280;6307;46.804;11.580;2022-07-23T06:36:48;-21403.25;;;18.37;100.00
12486;BME280;6307;46.804;11.580;2022-07-23T06:39:14;-21403.09;;;18.37;100.00
12486;BME280;6307;46.804;11.580;2022-07-23T06:41:41;-21404.00;;;18.40;100.00
12486;BME280;6307;46.804;11.580;2022-07-23T06:44:07;-21406.97;;;18.50;100.00
12486;BME280;6307;46.804;11.580;2022-07-23T06:46:33;-21408.75;;;18.56;100.00
12486;BME280;6307;46.804;11.580;2022-07-23T06:48:59;-21408.31;;;18.54;100.00
12486;BME280;6307;46.804;11.580;2022-07-23T06:51:26;-21404.44;;;18.41;100.00
12486;BME280;6307;46.804;11.580;2022-07-23T06:53:52;-21405.63;;;18.45;100.00
12486;BME280;6307;46.804;11.580;2022-07-23T06:56:18;-21410.09;;;18.60;100.00
12486;BME280;6307;46.804;11.580;2022-07-23T06:58:44;-21417.69;;;18.86;100.00
12486;BME280;6307;46.804;11.580;2022-07-23T07:01:11;-21424.69;;;19.09;100.00
12486;BME280;6307;46.804;11.580;2022-07-23T07:03:37;-21422.75;;;19.03;100.00
12486;BME280;6307;46.804;11.580;2022-07-23T07:06:03;-21419.94;;;18.93;100.00
12486;BME280;6307;46.804;11.580;2022-07-23T07:08:29;-21424.38;;;19.08;100.00
12486;BME280;6307;46.804;11.580;2022-07-23T07:10:56;-21425.00;;;19.10;100.00
12486;BME280;6307;46.804;11.580;2022-07-23T07:13:22;-21421.25;;;18.98;100.00
12486;BME280;6307;46.804;11.580;2022-07-23T07:15:48;-21421.25;;;18.98;100.00
12486;BME280;6307;46.804;11.580;2022-07-23T07:18:14;-21423.78;;;19.06;100.00
12486;BME280;6307;46.804;11.580;2022-07-23T07:20:40;-21430.94;;;19.30;100.00
12486;BME280;6307;46.804;11.580;2022-07-23T07:23:06;-21438.53;;;19.56;100.00
12486;BME280;6307;46.804;11.580;2022-07-23T07:25:33;-21438.69;;;19.56;100.00
12486;BME280;6307;46.804;11.580;2022-07-23T07:27:59;-21458.16;;;20.22;100.00
12486;BME280;6307;46.804;11.580;2022-07-23T07:30:25;-21484.50;;;21.10;100.00
12486;BME280;6307;46.804;11.580;2022-07-23T07:32:51;-21516.28;;;22.17;100.00
12486;BME280;6307;46.804;11.580;2022-07-23T07:35:18;-21538.97;;;22.94;100.00
12486;BME280;6307;46.804;11.580;2022-07-23T07:37:44;-21549.38;;;23.29;100.00
12486;BME280;6307;46.804;11.580;2022-07-23T07:40:10;-21557.06;;;23.55;100.00
12486;BME280;6307;46.804;11.580;2022-07-23T07:42:51;-21565.97;;;23.85;100.00
12486;BME280;6307;46.804;11.580;2022-07-23T07:45:23;-21562.09;;;23.72;100.00
12486;BME280;6307;46.804;11.580;2022-07-23T07:47:51;-21571.16;;;24.02;100.00
12486;BME280;6307;46.804;11.580;2022-07-23T07:50:20;-21579.44;;;24.30;100.00
12486;BME280;6307;46.804;11.580;2022-07-23T07:52:47;-21589.66;;;24.65;100.00
12486;BME280;6307;46.804;11.580;2022-07-23T07:55:13;-21581.81;;;24.38;100.00
12486;BME280;6307;46.804;11.580;2022-07-23T07:57:40;-21578.72;;;24.28;100.00
12486;BME280;6307;46.804;11.580;2022-07-23T08:00:09;-21567.16;;;23.89;100.00
12486;BME280;6307;46.804;11.580;2022-07-23T08:02:46;-21568.94;;;23.95;100.00
12486;BME280;6307;46.804;11.580;2022-07-23T08:05:21;-21556.31;;;23.52;100.00
12486;BME280;6307;46.804;11.580;2022-07-23T08:07:49;-21547.28;;;23.22;100.00
12486;BME280;6307;46.804;11.580;2022-07-23T08:10:16;-21558.25;;;23.59;100.00
12486;BME280;6307;46.804;11.580;2022-07-23T08:12:48;-21563.00;;;23.75;100.00
12486;BME280;6307;46.804;11.580;2022-07-23T08:15:18;-21560.47;;;23.66;100.00
12486;BME280;6307;46.804;11.580;2022-07-23T08:17:46;-21559.59;;;23.63;100.00
12486;BME280;6307;46.804;11.580;2022-07-23T08:20:14;-21574.56;;;24.14;100.00
12486;BME280;6307;46.804;11.580;2022-07-23T08:22:47;-21585.66;;;24.51;100.00
12486;BME280;6307;46.804;11.580;2022-07-23T08:25:29;-21602.25;;;25.07;100.00
12486;BME280;6307;46.804;11.580;2022-07-23T08:28:00;-21601.94;;;25.06;100.00
12486;BME280;6307;46.804;11.580;2022-07-23T08:30:29;-21613.19;;;25.44;100.00
12486;BME280;6307;46.804;11.580;2022-07-23T08:32:56;-21600.91;;;25.03;100.00
12486;BME280;6307;46.804;11.580;2022-07-23T08:35:33;-21593.97;;;24.79;100.00
12486;BME280;6307;46.804;11.580;2022-07-23T08:38:04;-21576.94;;;24.22;100.00
12486;BME280;6307;46.804;11.580;2022-07-23T08:40:35;-21588.94;;;24.62;100.00
12486;BME280;6307;46.804;11.580;2022-07-23T08:43:08;-21591.00;;;24.69;100.00
12486;BME280;6307;46.804;11.580;2022-07-23T08:45:40;-21560.63;;;23.67;100.00
12486;BME280;6307;46.804;11.580;2022-07-23T08:48:12;-21562.25;;;23.72;100.00
12486;BME280;6307;46.804;11.580;2022-07-23T08:50:48;-21567.44;;;23.90;100.00
12486;BME280;6307;46.804;11.580;2022-07-23T08:53:17;-21567.75;;;23.91;100.00
12486;BME280;6307;46.804;11.580;2022-07-23T08:55:49;-21558.25;;;23.59;100.00
12486;BME280;6307;46.804;11.580;2022-07-23T08:58:17;-21561.06;;;23.68;100.00
12486;BME280;6307;46.804;11.580;2022-07-23T09:00:44;-21546.84;;;23.20;100.00
12486;BME280;6307;46.804;11.580;2022-07-23T09:03:16;-21544.47;;;23.12;100.00
12486;BME280;6307;46.804;11.580;2022-07-23T09:05:45;-21534.69;;;22.79;100.00
12486;BME280;6307;46.804;11.580;2022-07-23T09:08:14;-21529.94;;;22.63;100.00
12486;BME280;6307;46.804;11.580;2022-07-23T09:10:58;-21529.03;;;22.60;100.00
12486;BME280;6307;46.804;11.580;2022-07-23T09:16:11;-21530.38;;;22.65;100.00
12486;BME280;6307;46.804;11.580;2022-07-23T09:18:50;-21533.78;;;22.76;100.00
12486;BME280;6307;46.804;11.580;2022-07-23T09:23:56;-21534.97;;;22.80;100.00
12486;BME280;6307;46.804;11.580;2022-07-23T09:31:51;-21534.81;;;22.80;100.00
12486;BME280;6307;46.804;11.580;2022-07-23T09:37:17;-21516.28;;;22.17;100.00
12486;BME280;6307;46.804;11.580;2022-07-23T09:39:46;-21532.16;;;22.71;100.00
12486;BME280;6307;46.804;11.580;2022-07-23T09:44:45;-21524.44;;;22.45;100.00
12486;BME280;6307;46.804;11.580;2022-07-23T09:47:16;-21537.19;;;22.88;100.00
12486;BME280;6307;46.804;11.580;2022-07-23T09:52:41;-21621.78;;;25.73;100.00
12486;BME280;6307;46.804;11.580;2022-07-23T09:55:09;-21604.75;;;25.16;100.00
12486;BME280;6307;46.804;11.580;2022-07-23T09:57:36;-21618.38;;;25.62;100.00
12486;BME280;6307;46.804;11.580;2022-07-23T10:00:05;-21652.38;;;26.77;100.00
12486;BME280;6307;46.804;11.580;2022-07-23T10:02:37;-21666.28;;;27.24;98.17
12486;BME280;6307;46.804;11.580;2022-07-23T10:05:05;-21673.78;;;27.49;97.35
12486;BME280;6307;46.804;11.580;2022-07-23T10:07:37;-21667.44;;;27.27;97.50
12486;BME280;6307;46.804;11.580;2022-07-23T10:10:05;-21613.78;;;25.46;100.00
12486;BME280;6307;46.804;11.580;2022-07-23T10:12:33;-21610.53;;;25.35;100.00
12486;BME280;6307;46.804;11.580;2022-07-23T10:15:03;-21637.00;;;26.25;100.00
12486;BME280;6307;46.804;11.580;2022-07-23T10:17:31;-21657.09;;;26.92;98.35
12486;BME280;6307;46.804;11.580;2022-07-23T10:19:58;-21666.72;;;27.25;100.00
12486;BME280;6307;46.804;11.580;2022-07-23T10:22:50;-21679.09;;;27.67;93.47
12486;BME280;6307;46.804;11.580;2022-07-23T10:32:04;-21736.78;;;29.62;83.93
12486;BME280;6307;46.804;11.580;2022-07-23T10:38:07;-21787.53;;;31.35;71.76
12486;BME280;6307;46.804;11.580;2022-07-23T10:40:56;-21822.34;;;32.53;59.06
12486;BME280;6307;46.804;11.580;2022-07-23T10:43:28;-21849.03;;;33.44;46.96
12486;BME280;6307;46.804;11.580;2022-07-23T10:45:57;-21859.91;;;33.81;59.42
12486;BME280;6307;46.804;11.580;2022-07-23T10:49:32;-21857.09;;;33.72;51.76
12486;BME280;6307;46.804;11.580;2022-07-23T10:57:25;-21825.00;;;32.62;50.67
12486;BME280;6307;46.804;11.580;2022-07-23T11:02:29;-21864.00;;;33.95;52.66
12486;BME280;6307;46.804;11.580;2022-07-23T11:05:03;-21885.69;;;34.69;42.97
12486;BME280;6307;46.804;11.580;2022-07-23T11:07:30;-21872.34;;;34.24;50.09
12486;BME280;6307;46.804;11.580;2022-07-23T11:09:58;-21898.13;;;35.12;47.92
12486;BME280;6307;46.804;11.580;2022-07-23T11:15:12;-21903.09;;;35.29;41.66
12486;BME280;6307;46.804;11.580;2022-07-23T11:25:02;-21920.34;;;35.88;45.80
12486;BME280;6307;46.804;11.580;2022-07-23T11:27:44;-21885.09;;;34.67;43.07
12486;BME280;6307;46.804;11.580;2022-07-23T11:35:34;-21881.44;;;34.55;46.85
12486;BME280;6307;46.804;11.580;2022-07-23T11:40:30;-21886.69;;;34.73;47.02
12486;BME280;6307;46.804;11.580;2022-07-23T11:42:58;-21908.06;;;35.46;47.42
12486;BME280;6307;46.804;11.580;2022-07-23T11:45:40;-21920.34;;;35.88;40.90
12486;BME280;6307;46.804;11.580;2022-07-23T11:48:09;-21913.47;;;35.64;46.24
12486;BME280;6307;46.804;11.580;2022-07-23T11:50:43;-21896.22;;;35.05;49.51
12486;BME280;6307;46.804;11.580;2022-07-23T11:53:09;-21896.66;;;35.07;42.01
12486;BME280;6307;46.804;11.580;2022-07-23T11:55:35;-21890.94;;;34.87;43.84
12486;BME280;6307;46.804;11.580;2022-07-23T11:58:02;-21889.19;;;34.81;46.87
12486;BME280;6307;46.804;11.580;2022-07-23T12:00:30;-21867.22;;;34.06;43.91
12486;BME280;6307;46.804;11.580;2022-07-23T12:03:02;-21855.78;;;33.67;45.86
12486;BME280;6307;46.804;11.580;2022-07-23T12:05:33;-21826.59;;;32.68;49.22
12486;BME280;6307;46.804;11.580;2022-07-23T12:08:04;-21823.97;;;32.59;56.66
12486;BME280;6307;46.804;11.580;2022-07-23T12:10:37;-21810.31;;;32.12;56.27
12486;BME280;6307;46.804;11.580;2022-07-23T12:13:12;-21808.53;;;32.06;61.85
12486;BME280;6307;46.804;11.580;2022-07-23T12:15:44;-21819.13;;;32.42;56.98
12486;BME280;6307;46.804;11.580;2022-07-23T12:18:23;-21855.78;;;33.67;49.44
12486;BME280;6307;46.804;11.580;2022-07-23T12:20:53;-21905.88;;;35.38;42.89
12486;BME280;6307;46.804;11.580;2022-07-23T12:23:23;-21949.13;;;36.86;40.11
12486;BME280;6307;46.804;11.580;2022-07-23T12:25:52;-21957.75;;;37.16;36.88
12486;BME280;6307;46.804;11.580;2022-07-23T12:28:32;-21950.16;;;36.90;34.06
12486;BME280;6307;46.804;11.580;2022-07-23T12:31:01;-21956.44;;;37.11;34.96
12486;BME280;6307;46.804;11.580;2022-07-23T12:33:37;-21947.25;;;36.80;34.09
12486;BME280;6307;46.804;11.580;2022-07-23T12:36:06;-21958.19;;;37.17;38.12
12486;BME280;6307;46.804;11.580;2022-07-23T12:38:41;-21969.72;;;37.57;33.90
12486;BME280;6307;46.804;11.580;2022-07-23T12:41:15;-21909.53;;;35.51;39.59
12486;BME280;6307;46.804;11.580;2022-07-23T12:43:43;-21901.50;;;35.23;45.77
12486;BME280;6307;46.804;11.580;2022-07-23T12:46:14;-21888.31;;;34.78;41.83
12486;BME280;6307;46.804;11.580;2022-07-23T12:51:18;-21879.38;;;34.48;48.81
12486;BME280;6307;46.804;11.580;2022-07-23T12:53:57;-21870.00;;;34.16;44.04
12486;BME280;6307;46.804;11.580;2022-07-23T12:56:37;-21867.81;;;34.08;45.46
12486;BME280;6307;46.804;11.580;2022-07-23T12:59:08;-21840.09;;;33.14;58.85
12486;BME280;6307;46.804;11.580;2022-07-23T13:01:38;-21828.06;;;32.73;61.42
12486;BME280;6307;46.804;11.580;2022-07-23T13:06:50;-21800.63;;;31.79;61.53
12486;BME280;6307;46.804;11.580;2022-07-23T13:09:20;-21792.81;;;31.53;67.01
12486;BME280;6307;46.804;11.580;2022-07-23T13:11:49;-21771.22;;;30.79;71.66
12486;BME280;6307;46.804;11.580;2022-07-23T13:14:17;-21753.41;;;30.19;81.25
12486;BME280;6307;46.804;11.580;2022-07-23T13:16:44;-21729.84;;;29.39;81.93
12486;BME280;6307;46.804;11.580;2022-07-23T13:19:11;-21716.28;;;28.93;97.94
12486;BME280;6307;46.804;11.580;2022-07-23T13:21:39;-21695.94;;;28.24;100.00
12486;BME280;6307;46.804;11.580;2022-07-23T13:24:11;-21683.97;;;27.83;100.00
12486;BME280;6307;46.804;11.580;2022-07-23T13:26:38;-21670.25;;;27.37;100.00
12486;BME280;6307;46.804;11.580;2022-07-23T13:29:05;-21663.31;;;27.13;100.00
12486;BME280;6307;46.804;11.580;2022-07-23T13:31:32;-21671.59;;;27.42;100.00
12486;BME280;6307;46.804;11.580;2022-07-23T13:33:58;-21656.53;;;26.91;100.00
12486;BME280;6307;46.804;11.580;2022-07-23T13:36:24;-21644.53;;;26.50;100.00
12486;BME280;6307;46.804;11.580;2022-07-23T13:38:51;-21648.97;;;26.65;100.00
12486;BME280;6307;46.804;11.580;2022-07-23T13:41:18;-21643.81;;;26.48;100.00
12486;BME280;6307;46.804;11.580;2022-07-23T13:43:44;-21630.06;;;26.01;100.00
12486;BME280;6307;46.804;11.580;2022-07-23T13:46:10;-21626.66;;;25.90;100.00
12486;BME280;6307;46.804;11.580;2022-07-23T13:48:36;-21609.94;;;25.33;100.00